createdAt,value
2018-07-22T00:00:26.848Z,10.78
2018-07-22T00:02:55.825Z,15.15
2018-07-22T00:05:24.289Z,10.88
2018-07-22T00:07:52.824Z,11.95
2018-07-22T00:10:25.319Z,11.15
2018-07-22T00:12:54.508Z,13.10
2018-07-22T00:15:22.930Z,14.73
2018-07-22T00:17:51.406Z,10.30
2018-07-22T00:20:20.353Z,10.18
2018-07-22T00:22:48.768Z,13.05
2018-07-22T00:25:17.280Z,12.13
2018-07-22T00:27:46.511Z,13.48
2018-07-22T00:30:15.077Z,12.95
2018-07-22T00:32:44.135Z,12.78
2018-07-22T00:35:13.490Z,13.50
2018-07-22T00:37:42.491Z,15.43
2018-07-22T00:40:11.687Z,17.10
2018-07-22T00:42:40.088Z,13.30
2018-07-22T00:45:11.736Z,11.20
2018-07-22T00:47:40.529Z,10.70
2018-07-22T00:50:09.113Z,10.50
2018-07-22T00:52:37.871Z,12.50
2018-07-22T00:55:06.823Z,12.43
2018-07-22T00:57:35.371Z,15.72
2018-07-22T01:00:04.572Z,12.00
2018-07-22T01:02:34.014Z,12.68
2018-07-22T01:05:02.529Z,12.20
2018-07-22T01:07:31.109Z,13.68
2018-07-22T01:10:01.027Z,12.30
2018-07-22T01:12:29.537Z,11.97
2018-07-22T01:14:58.177Z,12.65
2018-07-22T01:17:26.613Z,12.43
2018-07-22T01:19:54.992Z,13.35
2018-07-22T01:22:23.423Z,12.47
2018-07-22T01:24:51.940Z,17.35
2018-07-22T01:27:20.716Z,13.08
2018-07-22T01:29:49.247Z,13.78
2018-07-22T01:32:17.688Z,13.90
2018-07-22T01:34:46.173Z,11.80
2018-07-22T01:37:15.261Z,13.48
2018-07-22T01:39:43.691Z,15.15
2018-07-22T01:42:12.223Z,12.88
2018-07-22T01:44:40.751Z,15.88
2018-07-22T01:47:09.232Z,11.55
2018-07-22T01:49:37.673Z,11.80
2018-07-22T01:52:06.072Z,11.03
2018-07-22T01:54:34.512Z,11.18
2018-07-22T01:57:02.952Z,11.90
2018-07-22T01:59:32.120Z,10.88
2018-07-22T02:02:00.845Z,9.88
2018-07-22T02:04:29.304Z,10.38
2018-07-22T02:06:57.837Z,10.03
2018-07-22T02:09:26.936Z,9.53
2018-07-22T02:11:55.656Z,9.85
2018-07-22T02:14:24.373Z,10.15
2018-07-22T02:16:52.775Z,9.95
2018-07-22T02:19:21.252Z,9.40
2018-07-22T02:21:49.781Z,11.57
2018-07-22T02:24:18.205Z,9.60
2018-07-22T02:26:47.243Z,10.00
2018-07-22T02:29:15.885Z,9.63
2018-07-22T02:31:44.304Z,9.50
2018-07-22T02:34:12.792Z,9.23
2018-07-22T02:36:41.201Z,10.60
2018-07-22T02:39:11.698Z,10.45
2018-07-22T02:41:40.125Z,9.03
2018-07-22T02:44:09.180Z,9.65
2018-07-22T02:46:37.852Z,10.88
2018-07-22T02:49:06.860Z,9.70
2018-07-22T02:51:35.442Z,8.75
2018-07-22T02:54:03.873Z,11.95
2018-07-22T02:56:32.301Z,8.63
2018-07-22T02:59:04.268Z,10.58
2018-07-22T03:01:33.373Z,10.05
2018-07-22T03:04:02.149Z,9.65
2018-07-22T03:06:30.740Z,13.08
2018-07-22T03:08:59.158Z,8.83
2018-07-22T03:11:27.627Z,10.25
2018-07-22T03:13:56.148Z,9.30
2018-07-22T03:16:24.576Z,9.95
2018-07-22T03:18:53.575Z,9.73
2018-07-22T03:21:22.089Z,9.65
2018-07-22T03:23:50.485Z,8.93
2018-07-22T03:26:18.942Z,9.28
2018-07-22T03:28:48.103Z,9.58
2018-07-22T03:31:16.532Z,10.75
2018-07-22T03:33:44.949Z,9.13
2018-07-22T03:36:13.352Z,9.58
2018-07-22T03:38:41.889Z,9.63
2018-07-22T03:41:10.321Z,9.08
2018-07-22T03:43:38.777Z,9.83
2018-07-22T03:46:07.441Z,9.08
2018-07-22T03:48:35.868Z,8.83
2018-07-22T03:51:04.270Z,10.15
2018-07-22T03:53:33.436Z,9.15
2018-07-22T03:56:01.824Z,10.03
2018-07-22T03:58:30.251Z,9.05
2018-07-22T04:00:58.752Z,9.03
2018-07-22T04:03:27.864Z,8.73
2018-07-22T04:05:56.325Z,8.83
2018-07-22T04:08:25.399Z,8.70
2018-07-22T04:10:53.841Z,9.15
2018-07-22T04:13:22.247Z,9.13
2018-07-22T04:15:50.686Z,8.45
2018-07-22T04:18:19.228Z,8.93
2018-07-22T04:20:48.119Z,8.60
2018-07-22T04:23:17.340Z,8.58
2018-07-22T04:25:45.743Z,8.58
2018-07-22T04:28:14.255Z,10.15
2018-07-22T04:30:42.696Z,11.90
2018-07-22T04:33:11.099Z,9.53
2018-07-22T04:35:39.649Z,9.83
2018-07-22T04:38:08.125Z,10.20
2018-07-22T04:40:36.624Z,10.68
2018-07-22T04:43:05.076Z,10.05
2018-07-22T04:45:33.517Z,8.83
2018-07-22T04:48:01.972Z,8.55
2018-07-22T04:50:30.421Z,8.15
2018-07-22T04:52:58.789Z,8.78
2018-07-22T04:55:27.199Z,8.33
2018-07-22T04:57:55.632Z,8.10
2018-07-22T05:00:24.041Z,7.78
2018-07-22T05:02:52.467Z,8.58
2018-07-22T05:05:20.947Z,11.70
2018-07-22T05:07:49.488Z,7.45
2018-07-22T05:10:17.914Z,7.42
2018-07-22T05:12:46.347Z,8.38
2018-07-22T05:15:14.779Z,7.45
2018-07-22T05:17:43.176Z,8.13
2018-07-22T05:20:11.611Z,7.67
2018-07-22T05:22:40.656Z,7.87
2018-07-22T05:25:09.091Z,8.03
2018-07-22T05:27:37.520Z,7.22
2018-07-22T05:30:05.909Z,6.55
2018-07-22T05:32:34.308Z,7.42
2018-07-22T05:35:02.717Z,6.92
2018-07-22T05:37:31.196Z,7.10
2018-07-22T05:39:59.616Z,7.35
2018-07-22T05:42:28.695Z,6.80
2018-07-22T05:44:57.260Z,6.58
2018-07-22T05:47:25.748Z,7.05
2018-07-22T05:49:54.240Z,6.70
2018-07-22T05:52:22.697Z,6.92
2018-07-22T05:54:51.120Z,6.67
2018-07-22T05:57:19.562Z,6.17
2018-07-22T05:59:48.000Z,8.23
2018-07-22T06:02:16.824Z,6.42
2018-07-22T06:04:45.313Z,6.28
2018-07-22T06:07:13.730Z,5.80
2018-07-22T06:09:42.156Z,6.83
2018-07-22T06:12:10.610Z,6.60
2018-07-22T06:14:39.028Z,6.72
2018-07-22T06:17:08.124Z,7.35
2018-07-22T06:19:36.572Z,7.20
2018-07-22T06:22:04.993Z,7.22
2018-07-22T06:24:33.432Z,6.30
2018-07-22T06:27:02.013Z,7.12
2018-07-22T06:29:30.430Z,7.12
2018-07-22T06:31:59.441Z,7.25
2018-07-22T06:34:27.873Z,7.33
2018-07-22T06:36:56.405Z,8.43
2018-07-22T06:39:24.943Z,7.83
2018-07-22T06:41:53.405Z,9.08
2018-07-22T06:44:21.901Z,7.78
2018-07-22T06:46:50.401Z,8.50
2018-07-22T06:49:18.841Z,7.87
2018-07-22T06:51:47.240Z,8.30
2018-07-22T06:54:15.686Z,7.70
2018-07-22T06:56:43.827Z,8.75
2018-07-22T06:59:12.253Z,8.35
2018-07-22T07:01:40.700Z,7.72
2018-07-22T07:04:09.144Z,8.10
2018-07-22T07:06:37.557Z,8.03
2018-07-22T07:09:08.879Z,7.83
2018-07-22T07:11:37.968Z,8.10
2018-07-22T07:14:06.593Z,8.60
2018-07-22T07:16:35.084Z,8.05
2018-07-22T07:19:03.612Z,7.22
2018-07-22T07:21:32.070Z,7.85
2018-07-22T07:24:00.505Z,8.25
2018-07-22T07:26:28.944Z,8.15
2018-07-22T07:28:58.040Z,8.08
2018-07-22T07:31:26.475Z,7.12
2018-07-22T07:33:54.576Z,7.33
2018-07-22T07:36:23.004Z,7.10
2018-07-22T07:38:51.448Z,7.37
2018-07-22T07:41:19.861Z,8.05
2018-07-22T07:43:48.313Z,7.47
2018-07-22T07:46:17.842Z,7.90
2018-07-22T07:48:46.253Z,8.30
2018-07-22T07:51:15.025Z,7.65
2018-07-22T07:53:43.448Z,7.90
2018-07-22T07:56:11.879Z,7.60
2018-07-22T07:58:40.304Z,7.50
2018-07-22T08:01:08.744Z,8.43
2018-07-22T08:03:37.301Z,7.50
2018-07-22T08:06:05.820Z,7.90
2018-07-22T08:08:34.296Z,8.30
2018-07-22T08:11:02.727Z,7.90
2018-07-22T08:13:31.171Z,11.28
2018-07-22T08:15:59.775Z,7.47
2018-07-22T08:18:28.347Z,7.33
2018-07-22T08:20:57.028Z,7.50
2018-07-22T08:23:25.459Z,7.17
2018-07-22T08:25:53.894Z,7.55
2018-07-22T08:28:36.362Z,8.70
2018-07-22T08:31:05.034Z,7.85
2018-07-22T08:33:33.580Z,8.53
2018-07-22T08:36:02.136Z,7.10
2018-07-22T08:38:31.324Z,8.30
2018-07-22T08:40:59.541Z,7.85
2018-07-22T08:43:27.918Z,8.33
2018-07-22T08:45:56.708Z,8.70
2018-07-22T08:48:24.899Z,8.20
2018-07-22T08:50:53.093Z,7.70
2018-07-22T08:53:21.280Z,8.45
2018-07-22T08:55:49.427Z,8.70
2018-07-22T08:58:17.576Z,9.33
2018-07-22T09:00:45.813Z,8.55
2018-07-22T09:03:14.428Z,9.38
2018-07-22T09:05:42.644Z,8.10
2018-07-22T09:08:10.993Z,8.78
2018-07-22T09:10:39.171Z,9.83
2018-07-22T09:13:07.376Z,7.90
2018-07-22T09:15:35.613Z,8.05
2018-07-22T09:18:03.805Z,9.18
2018-07-22T09:20:32.020Z,7.92
2018-07-22T09:23:00.179Z,9.25
2018-07-22T09:37:55.223Z,13.38
2018-07-22T09:40:23.645Z,10.05
2018-07-22T09:42:52.037Z,10.68
2018-07-22T09:45:20.307Z,11.20
2018-07-22T09:47:48.484Z,9.68
2018-07-22T09:50:16.670Z,9.45
2018-07-22T09:52:50.983Z,11.48
2018-07-22T09:55:19.271Z,11.38
2018-07-22T09:57:47.466Z,9.95
2018-07-22T10:00:19.952Z,12.50
2018-07-22T10:02:48.151Z,12.15
2018-07-22T10:05:16.333Z,11.53
2018-07-22T10:07:44.520Z,10.43
2018-07-22T10:10:12.679Z,11.88
2018-07-22T10:12:40.879Z,11.00
2018-07-22T10:15:09.639Z,11.15
2018-07-22T10:17:38.465Z,10.90
2018-07-22T10:20:06.637Z,12.23
2018-07-22T10:22:34.930Z,13.55
2018-07-22T10:25:03.124Z,13.90
2018-07-22T10:27:31.289Z,11.22
2018-07-22T10:29:59.484Z,12.30
2018-07-22T10:32:27.664Z,13.48
2018-07-22T10:34:55.893Z,12.60
2018-07-22T10:37:24.118Z,11.03
2018-07-22T10:39:52.327Z,12.25
2018-07-22T10:42:20.532Z,13.88
2018-07-22T10:44:48.795Z,13.58
2018-07-22T10:47:17.712Z,14.45
2018-07-22T10:49:45.939Z,14.00
2018-07-22T10:52:14.232Z,15.40
2018-07-22T10:54:42.448Z,14.20
2018-07-22T10:57:11.039Z,14.23
2018-07-22T10:59:39.292Z,12.25
2018-07-22T11:02:07.809Z,13.05
2018-07-22T11:04:36.025Z,12.35
2018-07-22T11:07:04.197Z,13.25
2018-07-22T11:09:32.400Z,13.15
2018-07-22T11:12:00.621Z,15.85
2018-07-22T11:14:28.872Z,11.95
2018-07-22T11:16:57.026Z,13.05
2018-07-22T11:19:25.216Z,12.73
2018-07-22T11:21:53.544Z,11.85
2018-07-22T11:24:21.778Z,16.02
2018-07-22T11:26:49.994Z,12.78
2018-07-22T11:29:18.216Z,14.83
2018-07-22T11:31:46.384Z,12.00
2018-07-22T11:34:14.571Z,13.08
2018-07-22T11:36:42.804Z,13.53
2018-07-22T11:39:11.908Z,13.32
2018-07-22T11:41:40.619Z,13.38
2018-07-22T11:44:09.509Z,11.65
2018-07-22T11:46:38.841Z,10.32
2018-07-22T11:49:07.647Z,10.63
2018-07-22T11:51:36.434Z,10.03
2018-07-22T11:54:04.652Z,11.68
2018-07-22T11:56:33.539Z,9.60
2018-07-22T11:59:03.938Z,10.40
2018-07-22T12:01:32.173Z,11.63
2018-07-22T12:04:00.339Z,9.80
2018-07-22T12:06:28.601Z,11.43
2018-07-22T12:08:56.839Z,9.35
2018-07-22T12:11:25.384Z,10.35
2018-07-22T12:13:53.592Z,10.20
2018-07-22T12:16:21.729Z,9.53
2018-07-22T12:18:50.259Z,9.38
2018-07-22T12:21:18.472Z,12.20
2018-07-22T12:23:46.635Z,10.78
2018-07-22T12:26:14.817Z,9.38
2018-07-22T12:28:43.012Z,9.95
2018-07-22T12:31:11.201Z,10.45
2018-07-22T12:33:39.392Z,10.05
2018-07-22T12:36:08.311Z,12.13
2018-07-22T12:38:36.580Z,9.83
2018-07-22T12:41:04.773Z,9.10
2018-07-22T12:43:32.985Z,9.13
2018-07-22T12:46:01.737Z,8.88
2018-07-22T12:48:29.954Z,11.88
2018-07-22T12:50:58.094Z,10.85
2018-07-22T12:53:26.283Z,9.73
2018-07-22T12:55:54.455Z,9.90
2018-07-22T12:58:22.759Z,10.13
2018-07-22T13:00:50.958Z,10.38
2018-07-22T13:03:19.187Z,12.30
2018-07-22T13:05:47.369Z,8.60
2018-07-22T13:08:16.285Z,8.55
2018-07-22T13:10:44.554Z,9.33
2018-07-22T13:13:12.832Z,14.20
2018-07-22T13:15:41.020Z,12.25
2018-07-22T13:18:09.187Z,8.00
2018-07-22T13:20:37.371Z,9.28
2018-07-22T13:23:05.791Z,8.75
2018-07-22T13:25:33.972Z,9.65
2018-07-22T13:28:02.186Z,9.33
2018-07-22T13:30:30.412Z,7.78
2018-07-22T13:32:58.627Z,8.15
2018-07-22T13:35:26.819Z,7.47
2018-07-22T13:37:54.994Z,8.65
2018-07-22T13:40:23.178Z,7.55
2018-07-22T13:42:51.348Z,9.08
2018-07-22T13:45:19.566Z,7.15
2018-07-22T13:47:47.727Z,8.20
2018-07-22T13:50:16.054Z,7.92
2018-07-22T13:52:44.332Z,6.97
2018-07-22T13:55:12.504Z,6.87
2018-07-22T13:57:40.672Z,6.10
2018-07-22T14:00:08.891Z,6.12
2018-07-22T14:02:37.041Z,5.90
2018-07-22T14:05:05.217Z,5.92
2018-07-22T14:07:33.415Z,8.78
2018-07-22T14:10:01.597Z,6.62
2018-07-22T14:12:29.786Z,7.05
2018-07-22T14:14:58.817Z,6.15
2018-07-22T14:17:26.978Z,6.03
2018-07-22T14:19:55.136Z,5.12
2018-07-22T14:22:23.323Z,5.40
2018-07-22T14:24:51.520Z,8.98
2018-07-22T14:27:20.295Z,8.18
2018-07-22T14:29:48.527Z,6.65
2018-07-22T14:32:17.023Z,5.45
2018-07-22T14:34:45.320Z,6.47
2018-07-22T14:37:13.496Z,6.10
2018-07-22T14:39:41.720Z,6.25
2018-07-22T14:42:09.889Z,5.47
2018-07-22T14:44:38.063Z,5.87
2018-07-22T14:47:06.289Z,6.47
2018-07-22T14:49:34.708Z,5.33
2018-07-22T14:52:02.895Z,5.03
2018-07-22T14:54:31.060Z,7.97
2018-07-22T14:56:59.532Z,5.47
2018-07-22T14:59:27.803Z,6.62
2018-07-22T15:01:55.972Z,9.13
2018-07-22T15:04:24.168Z,5.70
2018-07-22T15:06:52.447Z,5.65
2018-07-22T15:09:20.662Z,5.25
2018-07-22T15:11:48.881Z,8.38
2018-07-22T15:14:17.176Z,8.55
2018-07-22T15:16:45.369Z,6.42
2018-07-22T15:19:13.599Z,6.97
2018-07-22T15:21:41.785Z,7.15
2018-07-22T15:24:09.981Z,6.05
2018-07-22T15:26:38.188Z,8.83
2018-07-22T15:29:06.382Z,7.22
2018-07-22T15:31:34.571Z,7.87
2018-07-22T15:34:02.760Z,7.12
2018-07-22T15:36:30.940Z,6.95
2018-07-22T15:38:59.141Z,7.55
2018-07-22T15:41:27.303Z,7.75
2018-07-22T15:43:56.199Z,7.83
2018-07-22T15:46:24.724Z,8.40
2018-07-22T15:48:53.165Z,8.18
2018-07-22T15:51:21.636Z,7.40
2018-07-22T15:53:50.141Z,11.18
2018-07-22T15:56:18.581Z,9.20
2018-07-22T15:58:47.058Z,7.25
2018-07-22T16:01:15.516Z,7.42
2018-07-22T16:03:44.123Z,6.85
2018-07-22T16:06:12.542Z,8.68
2018-07-22T16:08:41.068Z,7.90
2018-07-22T16:11:09.626Z,7.37
2018-07-22T16:13:38.287Z,8.60
2018-07-22T16:16:06.755Z,8.28
2018-07-22T16:18:35.177Z,7.03
2018-07-22T16:21:03.625Z,6.75
2018-07-22T16:23:32.104Z,7.35
2018-07-22T16:26:00.581Z,10.15
2018-07-22T16:28:29.029Z,9.30
2018-07-22T16:30:57.580Z,7.03
2018-07-22T16:33:26.035Z,6.72
2018-07-22T16:35:54.516Z,6.90
2018-07-22T16:38:22.986Z,7.45
2018-07-22T16:40:51.405Z,7.20
2018-07-22T16:43:20.671Z,6.95
2018-07-22T16:45:49.323Z,6.45
2018-07-22T16:48:17.768Z,6.30
2018-07-22T16:50:47.086Z,6.87
2018-07-22T16:53:15.581Z,6.10
2018-07-22T16:55:44.105Z,4.95
2018-07-22T16:58:12.617Z,4.90
2018-07-22T17:00:41.316Z,4.87
2018-07-22T17:03:09.813Z,4.45
2018-07-22T17:05:38.240Z,4.28
2018-07-22T17:08:06.697Z,5.10
2018-07-22T17:10:35.120Z,6.37
2018-07-22T17:13:03.563Z,5.50
2018-07-22T17:15:32.039Z,4.28
2018-07-22T17:18:00.705Z,4.53
2018-07-22T17:20:29.168Z,5.92
2018-07-22T17:22:57.709Z,4.10
2018-07-22T17:25:26.160Z,4.28
2018-07-22T17:27:54.625Z,4.33
2018-07-22T17:30:23.122Z,5.03
2018-07-22T17:32:51.604Z,3.95
2018-07-22T17:35:19.729Z,7.05
2018-07-22T17:37:48.165Z,5.95
2018-07-22T17:40:16.399Z,5.62
2018-07-22T17:42:44.878Z,4.15
2018-07-22T17:45:13.401Z,5.47
2018-07-22T17:47:42.361Z,4.50
2018-07-22T17:50:11.081Z,3.85
2018-07-22T17:52:39.547Z,5.62
2018-07-22T17:55:08.064Z,4.72
2018-07-22T17:57:37.786Z,3.50
2018-07-22T18:00:06.707Z,4.37
2018-07-22T18:02:36.454Z,4.22
2018-07-22T18:05:04.945Z,5.37
2018-07-22T18:07:33.372Z,3.60
2018-07-22T18:10:02.548Z,4.60
2018-07-22T18:12:31.015Z,4.03
2018-07-22T18:15:00.206Z,4.12
2018-07-22T18:17:28.628Z,4.00
2018-07-22T18:19:57.074Z,4.17
2018-07-22T18:22:26.311Z,4.08
2018-07-22T18:24:54.852Z,3.60
2018-07-22T18:27:23.300Z,4.85
2018-07-22T18:29:51.780Z,4.20
2018-07-22T18:32:20.244Z,4.05
2018-07-22T18:34:48.677Z,3.83
2018-07-22T18:37:17.249Z,7.65
2018-07-22T18:39:45.677Z,5.78
2018-07-22T18:42:14.106Z,3.67
2018-07-22T18:44:42.705Z,3.62
2018-07-22T18:47:11.252Z,4.40
2018-07-22T18:49:39.791Z,3.58
2018-07-22T18:52:08.281Z,3.37
2018-07-22T18:54:36.729Z,11.50
2018-07-22T18:57:05.217Z,3.37
2018-07-22T18:59:33.765Z,15.55
2018-07-22T19:02:02.377Z,4.15
2018-07-22T19:04:30.862Z,5.35
2018-07-22T19:06:59.854Z,3.02
2018-07-22T19:09:28.361Z,3.83
2018-07-22T19:11:56.838Z,3.77
2018-07-22T19:14:25.287Z,4.50
2018-07-22T19:16:53.704Z,4.00
2018-07-22T19:19:22.345Z,4.65
2018-07-22T19:21:50.805Z,3.47
2018-07-22T19:24:19.335Z,2.65
2018-07-22T19:26:47.900Z,4.17
2018-07-22T19:29:16.397Z,3.33
2018-07-22T19:31:44.836Z,3.15
2018-07-22T19:34:13.943Z,10.05
2018-07-22T19:36:42.429Z,4.78
2018-07-22T19:39:11.217Z,3.62
2018-07-22T19:41:39.841Z,2.60
2018-07-22T19:44:08.572Z,3.02
2018-07-22T19:46:37.165Z,4.50
2018-07-22T19:49:05.595Z,4.80
2018-07-22T19:51:34.818Z,4.58
2018-07-22T19:54:03.280Z,4.92
2018-07-22T19:56:31.809Z,2.95
2018-07-22T19:59:00.249Z,2.85
2018-07-22T20:01:28.889Z,4.10
2018-07-22T20:03:57.454Z,2.95
2018-07-22T20:06:25.591Z,3.85
2018-07-22T20:08:54.241Z,6.35
2018-07-22T20:11:22.696Z,3.45
2018-07-22T20:13:51.623Z,4.95
2018-07-22T20:16:20.106Z,4.08
2018-07-22T20:18:48.565Z,3.98
2018-07-22T20:21:17.009Z,3.47
2018-07-22T20:23:45.538Z,3.37
2018-07-22T20:26:13.979Z,2.95
2018-07-22T20:28:42.440Z,4.60
2018-07-22T20:31:10.949Z,2.75
2018-07-22T20:33:39.448Z,3.12
2018-07-22T20:36:07.929Z,3.52
2018-07-22T20:38:36.368Z,3.10
2018-07-22T20:41:04.920Z,3.33
2018-07-22T20:43:33.449Z,5.45
2018-07-22T20:46:02.756Z,3.47
2018-07-22T20:48:32.054Z,2.75
2018-07-22T20:51:01.461Z,2.98
2018-07-22T20:53:29.945Z,2.87
2018-07-22T20:55:58.648Z,3.45
2018-07-22T20:58:26.960Z,2.83
2018-07-22T21:00:55.132Z,2.87
2018-07-22T21:03:23.300Z,3.00
2018-07-22T21:05:51.774Z,2.75
2018-07-22T21:08:20.215Z,5.72
2018-07-22T21:10:48.842Z,2.92
2018-07-22T21:13:29.096Z,4.70
2018-07-22T21:15:57.532Z,3.30
2018-07-22T21:18:26.109Z,2.90
2018-07-22T21:20:54.620Z,3.60
2018-07-22T21:23:23.021Z,3.30
2018-07-22T21:25:51.493Z,3.50
2018-07-22T21:28:19.908Z,4.85
2018-07-22T21:30:48.436Z,2.98
2018-07-22T21:33:16.914Z,2.60
2018-07-22T21:35:45.353Z,2.70
2018-07-22T21:38:13.853Z,4.75
2018-07-22T21:40:42.297Z,2.92
2018-07-22T21:43:10.436Z,2.67
2018-07-22T21:45:38.904Z,7.33
2018-07-22T21:48:07.488Z,10.10
2018-07-22T21:50:35.948Z,8.63
2018-07-22T21:53:04.377Z,5.15
2018-07-22T21:55:32.893Z,4.22
2018-07-22T21:58:01.382Z,3.55
2018-07-22T22:00:35.081Z,2.80
2018-07-22T22:03:04.557Z,2.90
2018-07-22T22:05:33.008Z,2.15
2018-07-22T22:08:02.056Z,2.75
2018-07-22T22:10:30.549Z,2.80
2018-07-22T22:12:58.993Z,4.80
2018-07-22T22:15:28.489Z,2.62
2018-07-22T22:17:58.022Z,2.60
2018-07-22T22:20:27.608Z,2.58
2018-07-22T22:22:56.585Z,2.50
2018-07-22T22:25:25.006Z,2.67
2018-07-22T22:27:53.669Z,2.80
2018-07-22T22:30:22.873Z,3.15
2018-07-22T22:32:51.372Z,2.50
2018-07-22T22:35:20.486Z,2.67
2018-07-22T22:37:48.932Z,2.70
2018-07-22T22:40:17.418Z,3.58
2018-07-22T22:42:46.796Z,3.60
2018-07-22T22:45:15.749Z,2.62
2018-07-22T22:47:44.257Z,3.58
2018-07-22T22:50:12.677Z,2.65
2018-07-22T22:52:41.436Z,3.25
2018-07-22T22:55:10.022Z,4.12
2018-07-22T22:57:38.484Z,2.70
2018-07-22T23:00:07.539Z,3.45
2018-07-22T23:02:38.028Z,3.55
2018-07-22T23:05:07.853Z,4.45
2018-07-22T23:07:36.290Z,2.70
2018-07-22T23:10:05.965Z,2.75
2018-07-22T23:12:34.472Z,3.42
2018-07-22T23:15:02.880Z,3.55
2018-07-22T23:17:31.329Z,3.37
2018-07-22T23:19:59.868Z,3.45
2018-07-22T23:22:28.280Z,2.80
2018-07-22T23:24:56.673Z,2.75
2018-07-22T23:27:25.152Z,2.85
2018-07-22T23:29:53.566Z,2.75
2018-07-22T23:32:22.010Z,2.77
2018-07-22T23:34:50.415Z,3.15
2018-07-22T23:37:18.918Z,4.72
2018-07-22T23:39:47.320Z,3.17
2018-07-22T23:42:15.768Z,5.00
2018-07-22T23:44:44.856Z,3.08
2018-07-22T23:47:13.285Z,4.40
2018-07-22T23:49:41.737Z,3.65
2018-07-22T23:52:10.174Z,2.95
2018-07-22T23:54:39.368Z,2.95
2018-07-22T23:57:07.796Z,2.60
2018-07-22T23:59:36.224Z,2.70
